createdAt,value
2022-09-15T00:00:30.029Z,75.05
2022-09-15T00:02:57.143Z,75.44
2022-09-15T00:05:24.080Z,75.36
2022-09-15T00:07:50.969Z,75.44
2022-09-15T00:10:18.029Z,75.28
2022-09-15T00:12:44.992Z,75.14
2022-09-15T00:15:14.855Z,75.17
2022-09-15T00:17:43.693Z,75.76
2022-09-15T00:20:11.228Z,75.43
2022-09-15T00:22:38.561Z,75.63
2022-09-15T00:25:06.081Z,75.64
2022-09-15T00:27:34.208Z,75.87
2022-09-15T00:30:01.286Z,75.71
2022-09-15T00:32:29.664Z,75.44
2022-09-15T00:34:56.451Z,75.73
2022-09-15T00:37:23.631Z,75.85
2022-09-15T00:39:50.609Z,75.87
2022-09-15T00:42:20.062Z,76.19
2022-09-15T00:44:58.591Z,76.12
2022-09-15T00:47:39.857Z,75.86
2022-09-15T00:50:14.372Z,76.36
2022-09-15T00:52:47.981Z,76.19
2022-09-15T00:55:25.547Z,76.14
2022-09-15T00:57:58.022Z,76.19
2022-09-15T01:00:28.076Z,76.35
2022-09-15T01:02:56.815Z,76.29
2022-09-15T01:05:27.549Z,76.14
2022-09-15T01:08:01.981Z,76.00
2022-09-15T01:10:34.080Z,75.86
2022-09-15T01:13:09.219Z,75.86
2022-09-15T01:15:53.336Z,76.00
2022-09-15T01:18:30.952Z,75.99
2022-09-15T01:21:19.387Z,75.81
2022-09-15T01:24:15.447Z,75.77
2022-09-15T01:26:59.453Z,75.71
2022-09-15T01:30:04.428Z,75.91
2022-09-15T01:33:04.305Z,76.05
2022-09-15T01:35:36.837Z,76.15
2022-09-15T01:38:03.664Z,76.00
2022-09-15T01:40:39.817Z,75.75
2022-09-15T01:43:09.879Z,76.02
2022-09-15T01:45:39.073Z,75.75
2022-09-15T01:48:08.824Z,75.64
2022-09-15T01:50:41.501Z,75.84
2022-09-15T01:53:19.356Z,75.72
2022-09-15T01:56:06.867Z,75.58
2022-09-15T01:58:34.560Z,75.38
2022-09-15T02:01:12.773Z,75.60
2022-09-15T02:03:55.522Z,75.54
2022-09-15T02:06:53.585Z,75.47
2022-09-15T02:09:34.067Z,75.24
2022-09-15T02:12:20.005Z,75.29
2022-09-15T02:15:01.098Z,75.04
2022-09-15T02:17:30.422Z,75.18
2022-09-15T02:20:16.097Z,74.92
2022-09-15T02:22:50.450Z,75.08
2022-09-15T02:25:22.729Z,75.15
2022-09-15T02:27:54.099Z,75.26
2022-09-15T02:30:21.481Z,75.15
2022-09-15T02:33:02.825Z,75.15
2022-09-15T02:35:32.338Z,74.91
2022-09-15T02:38:00.199Z,74.97
2022-09-15T02:40:28.315Z,74.80
2022-09-15T02:42:57.288Z,74.99
2022-09-15T02:45:27.095Z,74.73
2022-09-15T02:47:54.192Z,74.64
2022-09-15T02:50:21.069Z,74.73
2022-09-15T02:52:47.965Z,74.74
2022-09-15T02:55:15.877Z,74.73
2022-09-15T02:57:42.675Z,74.38
2022-09-15T03:00:13.186Z,74.59
2022-09-15T03:02:49.983Z,74.29
2022-09-15T03:05:18.886Z,74.59
2022-09-15T03:07:45.792Z,74.54
2022-09-15T03:10:13.681Z,74.49
2022-09-15T03:12:51.608Z,73.98
2022-09-15T03:15:22.476Z,74.42
2022-09-15T03:17:49.709Z,74.36
2022-09-15T03:20:20.290Z,74.25
2022-09-15T03:22:48.153Z,74.03
2022-09-15T03:25:15.829Z,74.16
2022-09-15T03:27:42.989Z,74.14
2022-09-15T03:30:10.950Z,74.09
2022-09-15T03:32:38.392Z,74.15
2022-09-15T03:35:06.879Z,74.12
2022-09-15T03:37:33.941Z,74.11
2022-09-15T03:40:01.066Z,74.18
2022-09-15T03:42:27.934Z,74.02
2022-09-15T03:44:55.005Z,73.90
2022-09-15T03:47:21.824Z,73.81
2022-09-15T03:49:48.658Z,73.57
2022-09-15T03:52:15.538Z,73.76
2022-09-15T03:54:42.300Z,73.98
2022-09-15T03:57:09.200Z,73.81
2022-09-15T03:59:35.956Z,73.71
2022-09-15T04:02:02.917Z,73.69
2022-09-15T04:04:29.904Z,73.68
2022-09-15T04:06:56.746Z,73.70
2022-09-15T04:09:24.835Z,73.44
2022-09-15T04:11:51.712Z,73.51
2022-09-15T04:14:19.781Z,73.61
2022-09-15T04:16:46.844Z,73.44
2022-09-15T04:19:14.402Z,73.53
2022-09-15T04:21:41.262Z,73.41
2022-09-15T04:24:08.137Z,73.44
2022-09-15T04:26:37.166Z,73.32
2022-09-15T04:29:11.000Z,73.40
2022-09-15T04:31:37.951Z,73.53
2022-09-15T04:34:04.980Z,73.54
2022-09-15T04:36:31.876Z,73.21
2022-09-15T04:38:59.206Z,73.48
2022-09-15T04:41:26.841Z,73.17
2022-09-15T04:43:54.025Z,72.85
2022-09-15T04:46:21.349Z,73.38
2022-09-15T04:48:48.987Z,73.44
2022-09-15T04:51:21.629Z,73.07
2022-09-15T04:53:48.864Z,73.34
2022-09-15T04:56:21.176Z,73.25
2022-09-15T04:58:53.663Z,72.93
2022-09-15T05:01:26.362Z,73.07
2022-09-15T05:03:53.897Z,73.12
2022-09-15T05:06:23.298Z,73.28
2022-09-15T05:08:52.853Z,73.51
2022-09-15T05:11:20.292Z,73.25
2022-09-15T05:13:48.279Z,73.27
2022-09-15T05:16:20.593Z,72.63
2022-09-15T05:18:49.594Z,73.25
2022-09-15T05:21:18.291Z,73.26
2022-09-15T05:23:45.415Z,72.76
2022-09-15T05:26:15.123Z,72.99
2022-09-15T05:28:42.504Z,72.83
2022-09-15T05:31:18.119Z,72.71
2022-09-15T05:33:46.630Z,72.99
2022-09-15T05:36:17.455Z,72.80
2022-09-15T05:38:44.764Z,72.74
2022-09-15T05:41:16.078Z,72.78
2022-09-15T05:43:43.519Z,72.81
2022-09-15T05:46:10.570Z,72.83
2022-09-15T05:48:37.624Z,72.80
2022-09-15T05:51:04.720Z,72.83
2022-09-15T05:53:34.943Z,72.71
2022-09-15T05:56:05.207Z,72.46
2022-09-15T05:58:32.883Z,72.88
2022-09-15T06:01:11.264Z,72.70
2022-09-15T06:03:38.132Z,72.48
2022-09-15T06:06:06.523Z,72.60
2022-09-15T06:08:35.173Z,72.44
2022-09-15T06:11:08.058Z,72.46
2022-09-15T06:13:34.967Z,72.45
2022-09-15T06:16:10.134Z,72.58
2022-09-15T06:18:38.608Z,72.45
2022-09-15T06:21:09.705Z,72.25
2022-09-15T06:23:37.268Z,72.45
2022-09-15T06:26:09.515Z,72.62
2022-09-15T06:28:36.563Z,72.16
2022-09-15T06:31:04.189Z,72.59
2022-09-15T06:33:31.204Z,72.77
2022-09-15T06:36:01.188Z,74.65
2022-09-15T06:38:28.331Z,73.59
2022-09-15T06:40:56.563Z,72.88
2022-09-15T06:43:23.924Z,72.68
2022-09-15T06:45:50.877Z,72.79
2022-09-15T06:48:24.763Z,72.93
2022-09-15T06:50:55.738Z,72.84
2022-09-15T06:53:22.714Z,72.85
2022-09-15T06:55:49.824Z,73.12
2022-09-15T06:58:17.191Z,73.18
2022-09-15T07:00:44.131Z,73.11
2022-09-15T07:03:11.197Z,73.27
2022-09-15T07:05:38.128Z,73.26
2022-09-15T07:08:05.023Z,73.30
2022-09-15T07:10:32.061Z,73.72
2022-09-15T07:13:01.288Z,73.64
2022-09-15T07:15:28.133Z,73.28
2022-09-15T07:17:55.045Z,73.61
2022-09-15T07:20:21.848Z,73.73
2022-09-15T07:22:48.860Z,73.71
2022-09-15T07:25:15.728Z,73.65
2022-09-15T07:27:42.615Z,73.96
2022-09-15T07:30:11.308Z,73.74
2022-09-15T07:32:38.099Z,74.09
2022-09-15T07:35:05.410Z,73.91
2022-09-15T07:37:33.293Z,73.82
2022-09-15T07:40:00.387Z,73.86
2022-09-15T07:42:28.110Z,73.92
2022-09-15T07:44:56.963Z,73.79
2022-09-15T07:47:23.738Z,73.98
2022-09-15T07:49:50.544Z,73.95
2022-09-15T07:52:17.339Z,74.09
2022-09-15T07:54:44.236Z,73.98
2022-09-15T07:57:11.152Z,74.02
2022-09-15T07:59:41.091Z,73.93
2022-09-15T08:02:15.913Z,73.83
2022-09-15T08:04:42.979Z,73.89
2022-09-15T08:07:10.220Z,74.16
2022-09-15T08:09:38.016Z,74.15
2022-09-15T08:12:05.813Z,73.99
2022-09-15T08:14:33.563Z,73.97
2022-09-15T08:17:01.433Z,73.86
2022-09-15T08:19:28.736Z,73.96
2022-09-15T08:21:55.725Z,73.98
2022-09-15T08:24:23.600Z,74.00
2022-09-15T08:26:51.242Z,74.03
2022-09-15T08:29:18.860Z,74.10
2022-09-15T08:31:46.381Z,74.27
2022-09-15T08:34:15.331Z,74.19
2022-09-15T08:36:42.889Z,74.22
2022-09-15T08:39:09.787Z,74.11
2022-09-15T08:41:48.351Z,74.18
2022-09-15T08:44:27.271Z,74.18
2022-09-15T08:47:00.303Z,74.14
2022-09-15T08:49:59.586Z,74.28
2022-09-15T08:52:52.031Z,74.45
2022-09-15T08:55:33.924Z,74.42
2022-09-15T08:58:01.025Z,74.53
2022-09-15T09:00:29.800Z,74.52
2022-09-15T09:03:15.004Z,74.50
2022-09-15T09:06:06.148Z,74.61
2022-09-15T09:08:39.541Z,74.86
2022-09-15T09:11:26.571Z,74.76
2022-09-15T09:14:05.797Z,74.94
2022-09-15T09:16:50.954Z,74.91
2022-09-15T09:19:36.679Z,74.85
2022-09-15T09:22:12.107Z,75.12
2022-09-15T09:24:50.449Z,75.12
2022-09-15T09:27:23.101Z,75.28
2022-09-15T09:29:56.094Z,75.37
2022-09-15T09:32:25.195Z,75.84
2022-09-15T09:35:03.897Z,75.84
2022-09-15T09:37:32.773Z,76.07
2022-09-15T09:39:59.617Z,76.34
2022-09-15T09:42:33.832Z,76.31
2022-09-15T09:45:00.766Z,76.19
2022-09-15T09:47:29.624Z,76.29
2022-09-15T09:49:56.426Z,76.24
2022-09-15T09:52:37.800Z,76.22
2022-09-15T09:55:22.125Z,76.34
2022-09-15T09:57:49.466Z,77.20
2022-09-15T10:00:37.142Z,78.25
2022-09-15T10:03:12.430Z,78.05
2022-09-15T10:05:39.344Z,79.54
2022-09-15T10:08:06.235Z,79.61
2022-09-15T10:10:33.273Z,79.91
2022-09-15T10:13:02.856Z,80.14
2022-09-15T10:15:35.114Z,80.02
2022-09-15T10:18:02.144Z,79.89
2022-09-15T10:20:46.812Z,80.57
2022-09-15T10:23:21.681Z,80.59
2022-09-15T10:25:59.116Z,80.65
2022-09-15T10:28:28.133Z,80.51
2022-09-15T10:31:13.330Z,81.33
2022-09-15T10:33:42.691Z,80.87
2022-09-15T10:36:14.160Z,80.67
2022-09-15T10:38:47.821Z,81.01
2022-09-15T10:41:29.098Z,80.72
2022-09-15T10:44:20.802Z,80.91
2022-09-15T10:47:18.020Z,80.63
2022-09-15T10:50:16.523Z,79.85
2022-09-15T10:53:04.988Z,80.88
2022-09-15T10:55:53.272Z,81.24
2022-09-15T10:58:43.651Z,81.96
2022-09-15T11:01:30.534Z,81.40
2022-09-15T11:04:08.953Z,81.52
2022-09-15T11:06:51.782Z,81.55
2022-09-15T11:09:28.185Z,81.74
2022-09-15T11:12:16.806Z,81.85
2022-09-15T11:14:52.716Z,81.74
2022-09-15T11:17:19.537Z,82.42
2022-09-15T11:19:49.818Z,82.29
2022-09-15T11:22:28.878Z,81.96
2022-09-15T11:25:21.211Z,81.96
2022-09-15T11:28:03.457Z,81.82
2022-09-15T11:30:42.452Z,81.78
2022-09-15T11:33:16.650Z,82.09
2022-09-15T11:35:47.931Z,82.06
2022-09-15T11:38:34.484Z,82.16
2022-09-15T11:41:06.924Z,82.49
2022-09-15T11:43:46.041Z,82.00
2022-09-15T11:46:23.640Z,81.77
2022-09-15T11:49:16.518Z,81.63
2022-09-15T11:51:52.829Z,81.23
2022-09-15T11:54:34.985Z,81.18
2022-09-15T11:57:02.072Z,81.11
2022-09-15T12:00:00.841Z,81.24
2022-09-15T12:02:38.863Z,81.17
2022-09-15T12:05:16.398Z,81.27
2022-09-15T12:07:56.542Z,81.07
2022-09-15T12:10:34.404Z,81.15
2022-09-15T12:13:01.643Z,81.07
2022-09-15T12:15:28.995Z,81.04
2022-09-15T12:18:37.777Z,80.92
2022-09-15T12:21:39.448Z,81.04
2022-09-15T12:25:00.935Z,81.07
2022-09-15T12:27:28.660Z,80.86
2022-09-15T12:30:00.349Z,80.91
2022-09-15T12:32:32.667Z,81.04
2022-09-15T12:35:06.461Z,80.88
2022-09-15T12:37:52.955Z,80.65
2022-09-15T12:40:39.911Z,81.01
2022-09-15T12:43:13.425Z,81.06
2022-09-15T12:45:42.954Z,81.01
2022-09-15T12:48:21.713Z,80.48
2022-09-15T12:51:03.298Z,80.15
2022-09-15T12:53:37.876Z,79.73
2022-09-15T12:56:10.429Z,79.27
2022-09-15T12:58:48.829Z,79.34
2022-09-15T13:01:18.924Z,79.30
2022-09-15T13:03:46.437Z,79.20
2022-09-15T13:06:22.593Z,79.21
2022-09-15T13:09:01.792Z,79.01
2022-09-15T13:11:34.335Z,79.07
2022-09-15T13:14:04.235Z,79.22
2022-09-15T13:16:53.818Z,79.25
2022-09-15T13:19:44.430Z,79.37
2022-09-15T13:22:11.223Z,79.49
2022-09-15T13:24:46.843Z,79.44
2022-09-15T13:27:18.440Z,79.57
2022-09-15T13:30:00.747Z,79.73
2022-09-15T13:32:45.671Z,80.02
2022-09-15T13:35:21.342Z,80.56
2022-09-15T13:38:12.228Z,80.11
2022-09-15T13:41:23.796Z,80.14
2022-09-15T13:44:18.221Z,80.31
2022-09-15T13:46:45.056Z,80.81
2022-09-15T13:49:22.180Z,81.04
2022-09-15T13:52:08.240Z,81.14
2022-09-15T13:54:35.106Z,81.16
2022-09-15T13:57:02.576Z,81.52
2022-09-15T13:59:32.671Z,81.64
2022-09-15T14:02:00.726Z,81.53
2022-09-15T14:04:30.812Z,81.56
2022-09-15T14:07:02.048Z,81.49
2022-09-15T14:09:39.595Z,81.50
2022-09-15T14:12:12.337Z,81.39
2022-09-15T14:14:55.708Z,81.26
2022-09-15T14:17:25.856Z,81.23
2022-09-15T14:19:54.825Z,81.07
2022-09-15T14:22:21.902Z,81.04
2022-09-15T14:24:50.625Z,80.92
2022-09-15T14:27:36.803Z,81.51
2022-09-15T14:30:15.755Z,82.07
2022-09-15T14:32:45.832Z,82.29
2022-09-15T14:35:19.856Z,82.46
2022-09-15T14:37:58.511Z,82.42
2022-09-15T14:40:37.823Z,82.22
2022-09-15T14:43:28.156Z,82.07
2022-09-15T14:46:00.965Z,81.92
2022-09-15T14:48:34.270Z,82.03
2022-09-15T14:51:04.697Z,82.07
2022-09-15T14:53:35.427Z,81.91
2022-09-15T14:56:17.747Z,81.73
2022-09-15T14:58:50.542Z,81.90
2022-09-15T15:01:35.099Z,81.84
2022-09-15T15:04:12.358Z,82.04
2022-09-15T15:07:05.183Z,81.93
2022-09-15T15:09:43.762Z,82.06
2022-09-15T15:12:21.664Z,82.08
2022-09-15T15:14:49.031Z,81.75
2022-09-15T15:17:35.627Z,81.55
2022-09-15T15:20:08.975Z,81.41
2022-09-15T15:22:37.521Z,81.20
2022-09-15T15:25:28.944Z,81.33
2022-09-15T15:27:57.759Z,81.23
2022-09-15T15:30:30.918Z,81.17
2022-09-15T15:33:05.872Z,81.16
2022-09-15T15:35:35.674Z,80.72
2022-09-15T15:38:04.656Z,80.98
2022-09-15T15:40:31.879Z,80.36
2022-09-15T15:43:16.935Z,80.78
2022-09-15T15:45:58.427Z,80.40
2022-09-15T15:48:27.476Z,80.89
2022-09-15T15:50:55.181Z,80.80
2022-09-15T15:53:23.572Z,80.86
2022-09-15T15:55:50.421Z,80.82
2022-09-15T15:58:17.923Z,80.69
2022-09-15T16:00:49.793Z,80.75
2022-09-15T16:03:18.032Z,80.61
2022-09-15T16:05:53.201Z,80.43
2022-09-15T16:08:25.210Z,80.40
2022-09-15T16:10:54.519Z,80.31
2022-09-15T16:13:23.307Z,80.13
2022-09-15T16:15:52.409Z,79.83
2022-09-15T16:18:19.229Z,79.44
2022-09-15T16:20:46.134Z,79.46
2022-09-15T16:23:21.608Z,79.29
2022-09-15T16:26:07.790Z,79.10
2022-09-15T16:28:34.769Z,79.09
2022-09-15T16:31:01.602Z,78.82
2022-09-15T16:33:28.788Z,78.85
2022-09-15T16:36:06.860Z,78.81
2022-09-15T16:38:35.641Z,78.34
2022-09-15T16:41:03.988Z,78.60
2022-09-15T16:43:30.829Z,78.41
2022-09-15T16:45:57.713Z,78.30
2022-09-15T16:48:24.728Z,78.26
2022-09-15T16:53:39.552Z,77.98
2022-09-15T16:56:08.041Z,78.08
2022-09-15T16:58:34.895Z,78.04
2022-09-15T17:01:01.886Z,77.63
2022-09-15T17:03:29.433Z,77.63
2022-09-15T17:05:59.557Z,77.67
2022-09-15T17:08:33.050Z,77.19
2022-09-15T17:11:05.006Z,77.27
2022-09-15T17:13:34.362Z,77.06
2022-09-15T17:16:01.784Z,77.07
2022-09-15T17:18:29.471Z,77.23
2022-09-15T17:20:56.867Z,76.92
2022-09-15T17:23:27.473Z,76.43
2022-09-15T17:25:58.465Z,76.73
2022-09-15T17:28:33.556Z,76.60
2022-09-15T17:31:05.266Z,76.65
2022-09-15T17:33:32.994Z,77.09
2022-09-15T17:36:00.392Z,77.41
2022-09-15T17:38:27.218Z,77.37
2022-09-15T17:40:57.700Z,77.46
2022-09-15T17:43:27.478Z,77.50
2022-09-15T17:45:54.862Z,77.37
2022-09-15T17:48:22.537Z,77.64
2022-09-15T17:50:50.105Z,77.79
2022-09-15T17:53:26.827Z,77.67
2022-09-15T17:55:55.513Z,77.80
2022-09-15T17:58:23.472Z,77.79
2022-09-15T18:00:50.865Z,77.80
2022-09-15T18:03:30.193Z,77.70
2022-09-15T18:05:59.254Z,77.82
2022-09-15T18:08:27.690Z,77.91
2022-09-15T18:10:55.013Z,77.61
2022-09-15T18:13:24.522Z,77.81
2022-09-15T18:15:51.577Z,77.62
2022-09-15T18:18:20.949Z,77.37
2022-09-15T18:20:49.750Z,77.21
2022-09-15T18:23:22.532Z,77.29
2022-09-15T18:25:50.696Z,77.49
2022-09-15T18:28:18.584Z,77.11
2022-09-15T18:30:48.093Z,77.15
2022-09-15T18:33:22.373Z,77.17
2022-09-15T18:35:51.927Z,77.15
2022-09-15T18:38:19.017Z,76.99
2022-09-15T18:40:56.775Z,76.91
2022-09-15T18:43:26.462Z,76.94
2022-09-15T18:45:59.287Z,76.87
2022-09-15T18:48:26.203Z,77.26
2022-09-15T18:50:53.533Z,77.21
2022-09-15T18:53:20.592Z,77.31
2022-09-15T18:55:47.593Z,77.24
2022-09-15T18:58:14.550Z,77.40
2022-09-15T19:00:41.947Z,77.50
2022-09-15T19:03:10.065Z,77.47
2022-09-15T19:05:37.880Z,77.45
2022-09-15T19:08:04.805Z,77.36
2022-09-15T19:10:32.537Z,77.54
2022-09-15T19:12:59.461Z,77.48
2022-09-15T19:15:27.691Z,77.48
2022-09-15T19:17:54.537Z,77.40
2022-09-15T19:20:21.413Z,77.27
2022-09-15T19:22:48.363Z,77.51
2022-09-15T19:25:15.342Z,77.11
2022-09-15T19:27:42.180Z,77.27
2022-09-15T19:30:10.398Z,77.27
2022-09-15T19:32:38.926Z,77.20
2022-09-15T19:35:07.691Z,77.27
2022-09-15T19:37:40.486Z,77.08
2022-09-15T19:40:10.161Z,76.99
2022-09-15T19:42:39.160Z,76.98
2022-09-15T19:45:07.075Z,76.97
2022-09-15T19:47:35.520Z,76.91
2022-09-15T19:50:03.370Z,76.73
2022-09-15T19:52:30.371Z,76.73
2022-09-15T19:54:57.204Z,76.79
2022-09-15T19:57:24.383Z,76.41
2022-09-15T19:59:51.515Z,76.79
2022-09-15T20:02:18.536Z,76.59
2022-09-15T20:04:45.637Z,76.65
2022-09-15T20:07:12.682Z,76.56
2022-09-15T20:09:39.509Z,76.39
2022-09-15T20:12:06.632Z,76.29
2022-09-15T20:14:33.908Z,76.37
2022-09-15T20:17:01.447Z,76.37
2022-09-15T20:19:29.538Z,76.48
2022-09-15T20:21:56.809Z,76.40
2022-09-15T20:24:24.087Z,76.34
2022-09-15T20:26:51.710Z,76.19
2022-09-15T20:29:19.513Z,76.22
2022-09-15T20:31:46.762Z,75.76
2022-09-15T20:34:13.645Z,76.06
2022-09-15T20:36:41.099Z,76.01
2022-09-15T20:39:11.982Z,75.70
2022-09-15T20:41:40.166Z,75.56
2022-09-15T20:44:10.944Z,75.83
2022-09-15T20:46:37.923Z,75.89
2022-09-15T20:49:05.233Z,76.02
2022-09-15T20:51:33.768Z,76.02
2022-09-15T20:54:03.736Z,76.08
2022-09-15T20:56:32.631Z,75.89
2022-09-15T20:59:00.573Z,76.25
2022-09-15T21:01:29.964Z,76.15
2022-09-15T21:03:56.842Z,76.11
2022-09-15T21:06:28.179Z,76.22
2022-09-15T21:08:56.742Z,76.20
2022-09-15T21:11:26.333Z,76.18
2022-09-15T21:13:54.514Z,76.30
2022-09-15T21:16:23.706Z,76.24
2022-09-15T21:18:51.047Z,76.12
2022-09-15T21:21:26.329Z,76.31
2022-09-15T21:24:03.562Z,76.29
2022-09-15T21:27:00.124Z,76.31
2022-09-15T21:29:27.992Z,76.47
2022-09-15T21:31:55.900Z,76.18
2022-09-15T21:34:22.837Z,76.17
2022-09-15T21:36:51.863Z,76.24
2022-09-15T21:39:18.808Z,76.24
2022-09-15T21:41:45.659Z,76.15
2022-09-15T21:44:12.695Z,76.21
2022-09-15T21:46:39.497Z,76.13
2022-09-15T21:49:06.324Z,76.00
2022-09-15T21:51:33.083Z,76.00
2022-09-15T21:54:00.753Z,76.25
2022-09-15T21:56:29.687Z,76.05
2022-09-15T21:58:56.542Z,76.04
2022-09-15T22:01:26.258Z,76.06
2022-09-15T22:03:59.095Z,75.99
2022-09-15T22:06:32.074Z,75.86
2022-09-15T22:09:00.662Z,75.72
2022-09-15T22:11:27.821Z,75.64
2022-09-15T22:13:55.724Z,75.52
2022-09-15T22:16:24.863Z,75.44
2022-09-15T22:18:52.414Z,75.47
2022-09-15T22:21:27.418Z,75.50
2022-09-15T22:23:56.222Z,75.41
2022-09-15T22:26:25.922Z,75.29
2022-09-15T22:28:53.330Z,75.21
2022-09-15T22:31:21.476Z,75.24
2022-09-15T22:33:49.095Z,75.22
2022-09-15T22:36:18.870Z,75.26
2022-09-15T22:38:45.956Z,75.14
2022-09-15T22:41:18.787Z,75.33
2022-09-15T22:43:48.081Z,75.36
2022-09-15T22:46:19.286Z,75.41
2022-09-15T22:48:46.412Z,75.79
2022-09-15T22:51:14.792Z,75.63
2022-09-15T22:53:42.325Z,75.75
2022-09-15T22:56:19.653Z,75.71
2022-09-15T22:58:48.547Z,75.54
2022-09-15T23:01:20.322Z,75.76
2022-09-15T23:03:55.730Z,76.01
2022-09-15T23:06:23.197Z,75.98
2022-09-15T23:08:55.682Z,75.96
2022-09-15T23:11:24.286Z,76.09
2022-09-15T23:13:51.982Z,76.13
2022-09-15T23:16:19.549Z,76.18
2022-09-15T23:18:46.692Z,76.35
2022-09-15T23:21:14.439Z,76.09
2022-09-15T23:23:47.680Z,76.18
2022-09-15T23:26:17.234Z,76.12
2022-09-15T23:28:44.104Z,76.05
2022-09-15T23:31:12.709Z,75.99
2022-09-15T23:33:40.473Z,76.06
2022-09-15T23:36:11.090Z,76.10
2022-09-15T23:38:40.202Z,76.01
2022-09-15T23:41:08.006Z,76.07
2022-09-15T23:43:35.068Z,75.98
2022-09-15T23:46:02.734Z,75.91
2022-09-15T23:48:31.663Z,75.72
2022-09-15T23:50:58.652Z,75.80
2022-09-15T23:53:25.650Z,75.91
2022-09-15T23:55:52.984Z,75.87
2022-09-15T23:58:19.827Z,75.99
